createdAt,value
2022-12-04T00:00:13.296Z,146.52
2022-12-04T00:02:36.077Z,159.77
2022-12-04T00:04:58.693Z,147.65
2022-12-04T00:07:21.132Z,144.95
2022-12-04T00:09:43.438Z,152.80
2022-12-04T00:12:05.997Z,140.40
2022-12-04T00:14:28.339Z,148.18
2022-12-04T00:16:50.702Z,150.93
2022-12-04T00:19:13.256Z,149.18
2022-12-04T00:21:35.554Z,141.27
2022-12-04T00:23:57.868Z,144.10
2022-12-04T00:26:25.589Z,148.60
2022-12-04T00:28:48.070Z,138.65
2022-12-04T00:31:13.377Z,148.25
2022-12-04T00:33:36.014Z,142.07
2022-12-04T00:36:03.358Z,145.55
2022-12-04T00:38:25.708Z,142.05
2022-12-04T00:40:52.020Z,137.10
2022-12-04T00:43:14.324Z,156.93
2022-12-04T00:45:36.666Z,152.23
2022-12-04T00:47:59.027Z,143.70
2022-12-04T00:50:21.500Z,153.43
2022-12-04T00:52:43.824Z,137.68
2022-12-04T00:55:06.919Z,142.82
2022-12-04T00:57:29.240Z,143.20
2022-12-04T00:59:51.657Z,153.93
2022-12-04T01:02:14.093Z,147.07
2022-12-04T01:04:36.423Z,157.15
2022-12-04T01:07:04.632Z,151.88
2022-12-04T01:09:27.182Z,144.13
2022-12-04T01:11:49.493Z,159.63
2022-12-04T01:14:11.799Z,150.35
2022-12-04T01:16:36.978Z,163.07
2022-12-04T01:18:59.560Z,147.15
2022-12-04T01:21:21.948Z,146.05
2022-12-04T01:23:44.432Z,142.30
2022-12-04T01:26:06.733Z,153.63
2022-12-04T01:28:29.098Z,148.32
2022-12-04T01:31:04.642Z,151.75
2022-12-04T01:33:27.652Z,158.93
2022-12-04T01:35:57.853Z,155.07
2022-12-04T01:38:20.159Z,145.25
2022-12-04T01:40:44.766Z,144.27
2022-12-04T01:43:09.651Z,149.68
2022-12-04T01:45:50.697Z,145.23
2022-12-04T01:48:32.177Z,139.15
2022-12-04T01:51:29.122Z,149.43
2022-12-04T01:53:57.460Z,141.77
2022-12-04T01:56:22.605Z,146.43
2022-12-04T01:58:47.891Z,132.13
2022-12-04T02:01:10.482Z,142.90
2022-12-04T02:03:32.836Z,132.75
2022-12-04T02:05:55.181Z,129.45
2022-12-04T02:08:17.627Z,140.10
2022-12-04T02:11:12.527Z,144.93
2022-12-04T02:14:41.313Z,143.05
2022-12-04T02:17:13.756Z,144.75
2022-12-04T02:20:26.683Z,137.68
2022-12-04T02:23:24.445Z,146.57
2022-12-04T02:26:23.193Z,135.55
2022-12-04T02:28:56.200Z,131.48
2022-12-04T02:31:28.426Z,134.70
2022-12-04T02:34:07.305Z,136.77
2022-12-04T02:36:32.327Z,133.48
2022-12-04T02:39:23.179Z,141.57
2022-12-04T02:42:16.876Z,133.60
2022-12-04T02:44:45.580Z,122.82
2022-12-04T02:47:11.288Z,126.63
2022-12-04T02:49:39.055Z,117.32
2022-12-04T02:52:01.564Z,119.10
2022-12-04T02:54:37.360Z,131.50
2022-12-04T02:57:00.232Z,126.63
2022-12-04T02:59:42.882Z,128.93
2022-12-04T03:02:22.967Z,121.60
2022-12-04T03:04:45.350Z,120.50
2022-12-04T03:07:13.493Z,125.63
2022-12-04T03:10:08.849Z,127.32
2022-12-04T03:12:41.314Z,130.55
2022-12-04T03:15:33.141Z,134.40
2022-12-04T03:18:15.598Z,131.93
2022-12-04T03:20:37.937Z,133.77
2022-12-04T03:23:06.635Z,132.33
2022-12-04T03:25:35.828Z,125.82
2022-12-04T03:28:01.775Z,134.70
2022-12-04T03:30:24.343Z,144.40
2022-12-04T03:32:58.375Z,131.68
2022-12-04T03:35:57.391Z,150.70
2022-12-04T03:38:19.595Z,131.68
2022-12-04T03:40:47.862Z,128.18
2022-12-04T03:43:51.210Z,137.75
2022-12-04T03:46:39.930Z,139.63
2022-12-04T03:49:13.979Z,158.40
2022-12-04T03:52:06.904Z,135.98
2022-12-04T03:54:35.542Z,148.13
2022-12-04T03:57:02.152Z,141.85
2022-12-04T03:59:30.587Z,153.63
2022-12-04T04:01:53.067Z,140.90
2022-12-04T04:04:19.858Z,139.50
2022-12-04T04:06:48.494Z,131.98
2022-12-04T04:09:15.968Z,148.88
2022-12-04T04:11:46.843Z,131.43
2022-12-04T04:14:32.907Z,130.95
2022-12-04T04:17:21.031Z,155.88
2022-12-04T04:20:01.975Z,146.35
2022-12-04T04:22:43.158Z,130.82
2022-12-04T04:25:17.582Z,146.88
2022-12-04T04:27:39.909Z,133.57
2022-12-04T04:30:02.262Z,136.93
2022-12-04T04:32:36.716Z,138.15
2022-12-04T04:35:22.904Z,140.63
2022-12-04T04:38:21.682Z,128.80
2022-12-04T04:40:52.471Z,127.50
2022-12-04T04:43:46.382Z,137.10
2022-12-04T04:46:33.844Z,127.43
2022-12-04T04:48:58.797Z,119.72
2022-12-04T04:51:21.148Z,133.02
2022-12-04T04:53:50.678Z,124.03
2022-12-04T04:56:13.121Z,130.50
2022-12-04T04:58:35.488Z,117.78
2022-12-04T05:01:11.479Z,127.50
2022-12-04T05:03:33.987Z,123.97
2022-12-04T05:05:56.451Z,113.53
2022-12-04T05:08:18.861Z,127.32
2022-12-04T05:10:41.208Z,121.30
2022-12-04T05:13:03.507Z,119.37
2022-12-04T05:15:26.948Z,113.57
2022-12-04T05:17:49.272Z,121.20
2022-12-04T05:20:11.974Z,112.47
2022-12-04T05:22:36.148Z,112.05
2022-12-04T05:24:58.692Z,112.75
2022-12-04T05:27:21.918Z,119.28
2022-12-04T05:32:06.501Z,109.30
2022-12-04T05:34:28.813Z,109.70
2022-12-04T05:36:51.164Z,113.67
2022-12-04T05:39:13.920Z,116.68
2022-12-04T05:41:36.233Z,115.13
2022-12-04T05:43:58.609Z,109.53
2022-12-04T05:46:20.983Z,105.93
2022-12-04T05:48:43.311Z,114.85
2022-12-04T05:51:09.417Z,109.32
2022-12-04T05:53:31.711Z,115.22
2022-12-04T05:56:00.421Z,108.23
2022-12-04T05:58:22.732Z,100.53
2022-12-04T06:00:45.049Z,113.30
2022-12-04T06:03:07.368Z,106.15
2022-12-04T06:05:29.697Z,98.68
2022-12-04T06:07:52.028Z,110.30
2022-12-04T06:10:14.347Z,107.45
2022-12-04T06:12:36.697Z,96.07
2022-12-04T06:14:58.982Z,113.30
2022-12-04T06:17:21.338Z,108.43
2022-12-04T06:19:43.636Z,97.97
2022-12-04T06:22:05.949Z,109.77
2022-12-04T06:24:28.297Z,109.70
2022-12-04T06:27:25.631Z,104.15
2022-12-04T06:29:33.212Z,99.45
2022-12-04T06:31:55.578Z,94.37
2022-12-04T06:34:18.203Z,107.78
2022-12-04T06:36:40.572Z,94.43
2022-12-04T06:39:03.006Z,96.10
2022-12-04T06:41:25.996Z,94.93
2022-12-04T06:43:48.903Z,89.07
2022-12-04T06:46:18.935Z,92.75
2022-12-04T06:48:41.692Z,95.00
2022-12-04T06:51:07.681Z,86.30
2022-12-04T06:53:30.400Z,95.32
2022-12-04T06:55:52.739Z,87.85
2022-12-04T06:58:15.042Z,88.03
2022-12-04T07:00:37.382Z,85.30
2022-12-04T07:02:59.743Z,93.57
2022-12-04T07:05:22.055Z,89.40
2022-12-04T07:07:44.397Z,85.77
2022-12-04T07:10:07.692Z,93.90
2022-12-04T07:14:52.219Z,91.82
2022-12-04T07:17:14.588Z,90.30
2022-12-04T07:19:37.467Z,93.57
2022-12-04T07:21:59.786Z,92.93
2022-12-04T07:24:22.076Z,87.28
2022-12-04T07:26:44.446Z,76.53
2022-12-04T07:29:06.754Z,83.68
2022-12-04T07:31:29.557Z,86.67
2022-12-04T07:33:54.105Z,85.43
2022-12-04T07:36:19.537Z,81.30
2022-12-04T07:38:42.086Z,82.00
2022-12-04T07:41:05.498Z,83.10
2022-12-04T07:43:28.682Z,84.38
2022-12-04T07:45:51.060Z,82.30
2022-12-04T07:48:13.447Z,75.85
2022-12-04T07:50:35.781Z,85.30
2022-12-04T07:52:58.061Z,86.13
2022-12-04T07:55:23.266Z,81.47
2022-12-04T07:57:45.852Z,89.00
2022-12-04T08:00:09.309Z,78.60
2022-12-04T08:02:31.621Z,85.65
2022-12-04T08:04:54.062Z,82.77
2022-12-04T08:07:16.450Z,87.47
2022-12-04T08:09:38.808Z,75.07
2022-12-04T08:12:01.117Z,81.25
2022-12-04T08:14:23.442Z,90.13
2022-12-04T08:16:51.047Z,80.07
2022-12-04T08:19:14.964Z,81.13
2022-12-04T08:21:37.306Z,80.35
2022-12-04T08:24:00.339Z,75.65
2022-12-04T08:26:23.787Z,76.07
2022-12-04T08:28:46.173Z,77.10
2022-12-04T08:31:18.021Z,79.57
2022-12-04T08:33:41.067Z,83.07
2022-12-04T08:36:07.530Z,81.90
2022-12-04T08:38:29.857Z,73.70
2022-12-04T08:40:52.164Z,81.73
2022-12-04T08:43:14.460Z,85.43
2022-12-04T08:45:36.759Z,75.67
2022-12-04T08:47:59.102Z,85.03
2022-12-04T08:50:21.410Z,84.90
2022-12-04T08:52:43.718Z,78.50
2022-12-04T08:55:06.790Z,85.73
2022-12-04T08:57:29.148Z,81.50
2022-12-04T08:59:51.424Z,87.93
2022-12-04T09:01:53.691Z,85.47
2022-12-04T09:03:56.011Z,83.85
2022-12-04T09:06:01.471Z,85.53
2022-12-04T09:08:03.772Z,79.05
2022-12-04T09:10:06.677Z,75.28
2022-12-04T09:12:08.652Z,74.00
2022-12-04T09:16:19.447Z,84.45
2022-12-04T09:18:21.408Z,82.63
2022-12-04T09:20:23.344Z,84.30
2022-12-04T09:22:25.301Z,83.00
2022-12-04T09:24:28.207Z,80.75
2022-12-04T09:26:32.189Z,85.03
2022-12-04T09:28:34.561Z,78.28
2022-12-04T09:30:36.561Z,90.18
2022-12-04T09:32:38.604Z,76.72
2022-12-04T09:34:40.774Z,79.25
2022-12-04T09:36:42.910Z,82.75
2022-12-04T09:38:46.898Z,82.80
2022-12-04T09:41:24.085Z,84.15
2022-12-04T09:43:42.533Z,71.57
2022-12-04T09:45:48.139Z,81.38
2022-12-04T09:47:53.615Z,81.78
2022-12-04T09:50:37.333Z,82.38
2022-12-04T09:52:59.775Z,72.65
2022-12-04T09:55:03.369Z,80.83
2022-12-04T09:57:37.652Z,78.43
2022-12-04T09:59:39.925Z,83.60
2022-12-04T10:02:29.910Z,80.72
2022-12-04T10:04:32.279Z,83.43
2022-12-04T10:07:07.023Z,78.60
2022-12-04T10:09:32.273Z,68.45
2022-12-04T10:12:01.904Z,75.32
2022-12-04T10:15:03.701Z,79.05
2022-12-04T10:18:09.813Z,66.15
2022-12-04T10:20:51.835Z,70.82
2022-12-04T10:23:25.081Z,72.13
2022-12-04T10:25:27.646Z,80.13
2022-12-04T10:27:44.744Z,73.82
2022-12-04T10:29:50.789Z,73.72
2022-12-04T10:31:55.570Z,73.57
2022-12-04T10:34:23.711Z,63.22
2022-12-04T10:36:32.838Z,64.80
2022-12-04T10:38:47.890Z,67.15
2022-12-04T10:41:15.273Z,73.30
2022-12-04T10:43:43.313Z,72.85
2022-12-04T10:45:45.643Z,67.10
2022-12-04T10:47:48.843Z,67.28
2022-12-04T10:49:58.861Z,70.38
2022-12-04T10:52:01.333Z,70.03
2022-12-04T10:56:19.789Z,73.10
2022-12-04T10:58:22.119Z,63.95
2022-12-04T11:00:30.127Z,68.43
2022-12-04T11:02:33.237Z,69.68
2022-12-04T11:04:36.872Z,65.43
2022-12-04T11:06:38.984Z,67.03
2022-12-04T11:08:48.939Z,65.25
2022-12-04T11:11:02.612Z,70.28
2022-12-04T11:13:14.995Z,63.88
2022-12-04T11:15:18.141Z,64.50
2022-12-04T11:17:20.475Z,67.68
2022-12-04T11:21:43.062Z,59.42
2022-12-04T11:23:51.506Z,59.28
2022-12-04T11:26:00.524Z,62.53
2022-12-04T11:28:06.544Z,69.07
2022-12-04T11:30:13.326Z,67.78
2022-12-04T11:32:33.228Z,72.40
2022-12-04T11:34:38.922Z,61.17
2022-12-04T11:36:41.573Z,75.40
2022-12-04T11:38:44.099Z,62.58
2022-12-04T11:40:56.042Z,67.45
2022-12-04T11:43:17.847Z,76.90
2022-12-04T11:45:22.800Z,69.63
2022-12-04T11:47:29.514Z,78.45
2022-12-04T11:49:32.719Z,75.53
2022-12-04T11:51:50.110Z,79.65
2022-12-04T11:54:06.519Z,70.20
2022-12-04T11:56:31.007Z,73.22
2022-12-04T11:59:12.680Z,73.82
2022-12-04T12:01:41.776Z,75.95
2022-12-04T12:04:25.236Z,90.90
2022-12-04T12:07:00.427Z,76.60
2022-12-04T12:09:22.637Z,78.15
2022-12-04T12:11:52.160Z,81.03
2022-12-04T12:14:32.258Z,80.60
2022-12-04T12:16:58.665Z,88.88
2022-12-04T12:19:18.235Z,91.85
2022-12-04T12:21:33.887Z,96.47
2022-12-04T12:24:18.719Z,86.20
2022-12-04T12:26:21.000Z,91.07
2022-12-04T12:28:59.486Z,93.55
2022-12-04T12:31:19.636Z,95.30
2022-12-04T12:33:28.301Z,83.38
2022-12-04T12:35:53.420Z,90.00
2022-12-04T12:38:01.164Z,89.03
2022-12-04T12:40:14.746Z,98.18
2022-12-04T12:42:25.767Z,95.10
2022-12-04T12:44:46.929Z,88.57
2022-12-04T12:47:12.985Z,97.20
2022-12-04T12:49:32.462Z,88.53
2022-12-04T12:51:45.974Z,93.80
2022-12-04T12:53:51.218Z,93.43
2022-12-04T12:55:55.725Z,96.60
2022-12-04T12:58:26.595Z,97.10
2022-12-04T13:00:28.672Z,91.95
2022-12-04T13:02:47.017Z,94.88
2022-12-04T13:04:50.573Z,95.72
2022-12-04T13:07:24.745Z,91.47
2022-12-04T13:10:01.936Z,92.30
2022-12-04T13:12:24.286Z,96.45
2022-12-04T13:14:49.187Z,94.43
2022-12-04T13:17:26.695Z,99.25
2022-12-04T13:19:54.765Z,94.13
2022-12-04T13:22:51.119Z,86.70
2022-12-04T13:25:45.438Z,97.35
2022-12-04T13:28:36.261Z,88.85
2022-12-04T13:31:13.534Z,87.07
2022-12-04T13:34:19.364Z,92.40
2022-12-04T13:37:09.151Z,86.18
2022-12-04T13:40:19.496Z,95.28
2022-12-04T13:42:42.327Z,92.80
2022-12-04T13:45:10.601Z,89.03
2022-12-04T13:47:34.458Z,86.13
2022-12-04T13:50:36.353Z,91.38
2022-12-04T13:52:58.738Z,90.97
2022-12-04T13:55:37.741Z,91.60
2022-12-04T13:58:10.606Z,85.07
2022-12-04T14:00:35.076Z,84.97
2022-12-04T14:03:24.238Z,88.50
2022-12-04T14:05:46.663Z,87.63
2022-12-04T14:08:25.673Z,87.03
2022-12-04T14:11:12.280Z,89.72
2022-12-04T14:13:47.853Z,94.55
2022-12-04T14:16:35.103Z,89.32
2022-12-04T14:19:01.497Z,95.72
2022-12-04T14:21:23.911Z,88.07
2022-12-04T14:23:46.286Z,84.60
2022-12-04T14:27:10.245Z,91.15
2022-12-04T14:29:25.980Z,96.18
2022-12-04T14:31:48.285Z,87.75
2022-12-04T14:34:31.937Z,85.33
2022-12-04T14:36:54.943Z,98.82
2022-12-04T14:39:32.304Z,90.50
2022-12-04T14:42:12.883Z,94.82
2022-12-04T14:44:35.228Z,91.63
2022-12-04T14:47:37.566Z,95.80
2022-12-04T14:50:40.457Z,92.10
2022-12-04T14:53:30.417Z,83.50
2022-12-04T14:56:26.334Z,87.13
2022-12-04T14:58:48.642Z,92.10
2022-12-04T15:01:29.383Z,95.53
2022-12-04T15:03:56.039Z,86.15
2022-12-04T15:06:29.436Z,89.88
2022-12-04T15:09:22.258Z,87.30
2022-12-04T15:12:13.510Z,86.50
2022-12-04T15:14:43.089Z,81.63
2022-12-04T15:17:05.491Z,87.70
2022-12-04T15:19:27.908Z,80.03
2022-12-04T15:21:50.312Z,96.18
2022-12-04T15:24:24.267Z,82.20
2022-12-04T15:26:47.665Z,89.72
2022-12-04T15:29:17.324Z,91.35
2022-12-04T15:31:47.114Z,81.45
2022-12-04T15:34:17.634Z,79.43
2022-12-04T15:36:52.060Z,88.97
2022-12-04T15:39:20.741Z,86.30
2022-12-04T15:41:43.107Z,92.63
2022-12-04T15:44:34.584Z,96.00
2022-12-04T15:47:00.193Z,91.68
2022-12-04T15:49:34.215Z,87.78
2022-12-04T15:52:16.980Z,93.13
2022-12-04T15:55:03.185Z,97.15
2022-12-04T15:57:40.586Z,93.15
2022-12-04T16:00:08.203Z,92.75
2022-12-04T16:02:41.678Z,93.35
2022-12-04T16:07:35.751Z,102.38
2022-12-04T16:10:04.075Z,100.95
2022-12-04T16:12:31.488Z,98.28
2022-12-04T16:14:55.464Z,91.85
2022-12-04T16:17:18.609Z,103.40
2022-12-04T16:19:41.534Z,90.60
2022-12-04T16:22:10.399Z,98.95
2022-12-04T16:24:32.711Z,95.97
2022-12-04T16:27:00.394Z,97.97
2022-12-04T16:29:23.583Z,100.30
2022-12-04T16:31:46.280Z,99.65
2022-12-04T16:34:11.494Z,96.13
2022-12-04T16:36:34.153Z,92.53
2022-12-04T16:38:56.689Z,98.80
2022-12-04T16:41:19.676Z,91.45
2022-12-04T16:43:42.011Z,91.15
2022-12-04T16:46:04.468Z,97.57
2022-12-04T16:48:27.629Z,85.05
2022-12-04T16:50:49.990Z,90.53
2022-12-04T16:53:20.492Z,91.82
2022-12-04T16:55:46.434Z,101.43
2022-12-04T16:58:08.728Z,92.05
2022-12-04T17:00:31.073Z,87.77
2022-12-04T17:02:53.398Z,82.72
2022-12-04T17:05:24.872Z,82.40
2022-12-04T17:07:47.282Z,82.43
2022-12-04T17:10:09.925Z,86.65
2022-12-04T17:12:32.215Z,87.15
2022-12-04T17:14:54.805Z,79.40
2022-12-04T17:17:17.396Z,80.10
2022-12-04T17:19:40.012Z,71.30
2022-12-04T17:22:02.386Z,81.18
2022-12-04T17:24:24.693Z,82.72
2022-12-04T17:26:35.462Z,83.10
2022-12-04T17:28:37.647Z,80.85
2022-12-04T17:30:39.631Z,78.07
2022-12-04T17:32:41.754Z,85.32
2022-12-04T17:34:44.246Z,85.88
2022-12-04T17:36:46.536Z,81.85
2022-12-04T17:38:52.246Z,84.28
2022-12-04T17:41:00.082Z,84.82
2022-12-04T17:43:02.313Z,86.35
2022-12-04T17:45:05.201Z,82.15
2022-12-04T17:47:07.748Z,84.63
2022-12-04T17:49:10.069Z,87.22
2022-12-04T17:51:15.218Z,82.78
2022-12-04T17:53:17.479Z,91.07
2022-12-04T17:55:19.799Z,90.82
2022-12-04T17:57:24.732Z,91.35
2022-12-04T17:59:27.243Z,96.82
2022-12-04T18:01:29.754Z,84.97
2022-12-04T18:05:35.019Z,86.13
2022-12-04T18:07:37.331Z,80.00
2022-12-04T18:09:39.755Z,83.47
2022-12-04T18:11:44.611Z,95.68
2022-12-04T18:13:54.463Z,90.13
2022-12-04T18:15:56.644Z,82.53
2022-12-04T18:17:58.649Z,87.63
2022-12-04T18:20:04.483Z,83.90
2022-12-04T18:22:07.169Z,85.03
2022-12-04T18:24:09.647Z,87.40
2022-12-04T18:26:14.294Z,85.32
2022-12-04T18:28:16.606Z,84.75
2022-12-04T18:30:18.801Z,83.45
2022-12-04T18:32:21.185Z,90.78
2022-12-04T18:34:23.660Z,80.25
2022-12-04T18:36:28.799Z,78.25
2022-12-04T18:38:32.030Z,83.05
2022-12-04T18:40:37.129Z,79.03
2022-12-04T18:42:39.267Z,85.90
2022-12-04T18:46:47.298Z,76.82
2022-12-04T18:48:52.601Z,79.35
2022-12-04T18:50:55.857Z,83.25
2022-12-04T18:53:01.167Z,84.80
2022-12-04T18:55:04.517Z,88.15
2022-12-04T18:57:08.342Z,82.60
2022-12-04T18:59:14.854Z,82.93
2022-12-04T19:01:18.991Z,74.05
2022-12-04T19:03:21.186Z,80.50
2022-12-04T19:05:23.279Z,78.18
2022-12-04T19:07:28.119Z,85.55
2022-12-04T19:11:52.972Z,73.43
2022-12-04T19:13:56.199Z,70.85
2022-12-04T19:15:58.245Z,76.88
2022-12-04T19:18:00.359Z,76.15
2022-12-04T19:20:05.708Z,75.70
2022-12-04T19:22:07.819Z,75.63
2022-12-04T19:24:10.513Z,74.13
2022-12-04T19:26:12.989Z,76.32
2022-12-04T19:28:15.184Z,73.78
2022-12-04T19:30:17.767Z,84.53
2022-12-04T19:32:20.146Z,78.32
2022-12-04T19:36:25.933Z,73.63
2022-12-04T19:38:28.176Z,79.80
2022-12-04T19:40:30.176Z,89.72
2022-12-04T19:42:32.422Z,81.95
2022-12-04T19:44:50.268Z,84.82
2022-12-04T19:46:52.395Z,82.40
2022-12-04T19:48:58.139Z,85.95
2022-12-04T19:51:05.472Z,89.10
2022-12-04T19:53:07.505Z,82.80
2022-12-04T19:55:09.665Z,87.20
2022-12-04T19:57:11.719Z,82.20
2022-12-04T19:59:13.951Z,85.95
2022-12-04T20:01:18.052Z,78.65
2022-12-04T20:03:20.134Z,82.22
2022-12-04T20:07:24.902Z,79.45
2022-12-04T20:09:27.512Z,77.07
2022-12-04T20:11:32.202Z,73.15
2022-12-04T20:13:36.829Z,71.80
2022-12-04T20:15:40.295Z,78.88
2022-12-04T20:17:42.344Z,76.28
2022-12-04T20:19:44.406Z,72.00
2022-12-04T20:21:46.710Z,80.63
2022-12-04T20:23:50.689Z,76.38
2022-12-04T20:25:52.757Z,77.53
2022-12-04T20:29:57.613Z,79.32
2022-12-04T20:31:59.819Z,76.03
2022-12-04T20:34:05.466Z,69.32
2022-12-04T20:36:09.477Z,75.07
2022-12-04T20:38:13.500Z,80.00
2022-12-04T20:40:16.274Z,74.30
2022-12-04T20:42:19.261Z,72.00
2022-12-04T20:44:21.479Z,76.82
2022-12-04T20:46:31.728Z,76.47
2022-12-04T20:48:34.203Z,79.03
2022-12-04T20:50:36.445Z,71.88
2022-12-04T20:54:41.858Z,73.97
2022-12-04T20:56:44.469Z,73.68
2022-12-04T20:58:46.915Z,74.60
2022-12-04T21:02:52.702Z,64.45
2022-12-04T21:04:55.475Z,75.10
2022-12-04T21:06:59.199Z,67.57
2022-12-04T21:09:05.956Z,70.93
2022-12-04T21:11:08.231Z,70.95
2022-12-04T21:13:29.205Z,77.05
2022-12-04T21:15:49.892Z,70.28
2022-12-04T21:17:52.883Z,73.63
2022-12-04T21:19:55.893Z,63.83
2022-12-04T21:21:58.825Z,67.85
2022-12-04T21:24:00.973Z,62.28
2022-12-04T21:26:04.006Z,69.72
2022-12-04T21:28:06.594Z,68.60
2022-12-04T21:30:09.455Z,72.90
2022-12-04T21:32:12.196Z,68.10
2022-12-04T21:34:16.909Z,65.78
2022-12-04T21:36:19.893Z,67.75
2022-12-04T21:38:22.216Z,68.85
2022-12-04T21:42:34.898Z,74.85
2022-12-04T21:44:37.027Z,62.03
2022-12-04T21:46:40.182Z,66.55
2022-12-04T21:48:42.775Z,61.60
2022-12-04T21:50:45.403Z,66.90
2022-12-04T21:52:47.636Z,62.22
2022-12-04T21:54:53.859Z,61.53
2022-12-04T21:56:56.908Z,63.08
2022-12-04T21:58:59.496Z,65.68
2022-12-04T22:01:12.492Z,64.07
2022-12-04T22:03:15.248Z,66.43
2022-12-04T22:05:17.739Z,63.35
2022-12-04T22:07:22.045Z,75.32
2022-12-04T22:09:26.099Z,70.50
2022-12-04T22:11:28.116Z,63.80
2022-12-04T22:13:30.209Z,72.97
2022-12-04T22:15:39.149Z,67.30
2022-12-04T22:17:59.668Z,67.45
2022-12-04T22:20:20.226Z,64.50
2022-12-04T22:22:42.549Z,66.27
2022-12-04T22:25:05.199Z,65.83
2022-12-04T22:27:27.505Z,64.88
2022-12-04T22:31:52.049Z,58.08
2022-12-04T22:33:55.287Z,64.65
2022-12-04T22:36:05.630Z,56.60
2022-12-04T22:38:07.627Z,67.05
2022-12-04T22:40:10.674Z,68.88
2022-12-04T22:42:31.477Z,65.53
2022-12-04T22:44:52.992Z,65.75
2022-12-04T22:49:37.734Z,70.13
2022-12-04T22:52:00.052Z,65.40
2022-12-04T22:54:22.373Z,69.30
2022-12-04T22:56:44.714Z,63.33
2022-12-04T22:59:07.025Z,64.57
2022-12-04T23:01:31.872Z,65.83
2022-12-04T23:03:54.442Z,63.00
2022-12-04T23:06:18.051Z,65.88
2022-12-04T23:08:41.219Z,67.78
2022-12-04T23:11:09.875Z,69.03
2022-12-04T23:13:32.361Z,69.40
2022-12-04T23:15:54.665Z,72.28
2022-12-04T23:18:16.989Z,67.67
2022-12-04T23:20:39.317Z,65.67
2022-12-04T23:23:01.680Z,70.13
2022-12-04T23:25:23.991Z,79.57
2022-12-04T23:27:46.310Z,72.10
2022-12-04T23:30:09.386Z,76.57
2022-12-04T23:34:54.219Z,72.22
2022-12-04T23:37:16.589Z,66.65
2022-12-04T23:39:38.893Z,75.35
2022-12-04T23:42:01.205Z,71.20
2022-12-04T23:44:23.510Z,72.60
2022-12-04T23:46:45.919Z,68.27
2022-12-04T23:49:08.301Z,63.60
2022-12-04T23:51:30.647Z,66.07
2022-12-04T23:53:53.024Z,65.60
2022-12-04T23:56:21.318Z,65.40
2022-12-04T23:58:44.634Z,65.88
